Home > Products > Valid Products > MTR

000
SAUS44 KMAF 302304
MTRGDP
METAR KGDP 302251Z AUTO 05018KT 10SM CLR 21/M01 A3027 RMK AO2 SLP194
T02061011





000
SAUS44 KMAF 302254
MTR6R6
METAR K6R6 302253Z AUTO 08008KT 29/14 A3005 RMK AO1 SLP143 T02890139





000
SAUS44 KMAF 302204
MTRGDP
METAR KGDP 302151Z AUTO 07012KT 10SM CLR 23/M02 A3027 RMK AO2 SLP191
T02281017





000
SAUS44 KMAF 302204
MTRGDP
METAR KGDP 302151Z AUTO 07012KT 10SM CLR 23/M02 A3027 RMK AO2 SLP191
T02281017





000
SAUS44 KMAF 302154
MTR6R6
METAR K6R6 302153Z AUTO 09008KT 29/14 A3004 RMK AO1 SLP142 T02940144





000
SAUS44 KMAF 302154
MTR6R6
METAR K6R6 302153Z AUTO 09008KT 29/14 A3004 RMK AO1 SLP142 T02940144





000
SAUS44 KMAF 302104
MTRGDP
METAR KGDP 302051Z AUTO 21008KT 10SM CLR 25/02 A3028 RMK AO2 SLP186
T02500022 56012





000
SAUS44 KMAF 302054
MTR6R6
METAR K6R6 302053Z AUTO 13007KT 29/15 A3005 RMK AO1 SLP142 T02890150
56024





000
SAUS44 KMAF 302004
MTRGDP
METAR KGDP 301951Z AUTO 23008KT 10SM CLR 23/05 A3029 RMK AO2 SLP191
T02330050





000
SAUS44 KMAF 301954
MTR6R6
METAR K6R6 301953Z AUTO 00000KT 28/16 A3007 RMK AO1 SLP150 T02830156





000
SAUS44 KMAF 301904
MTRGDP
METAR KGDP 301851Z AUTO 23008KT 10SM CLR 23/07 A3030 RMK AO2 SLP194
T02330072





000
SAUS44 KMAF 301854
MTR6R6
METAR K6R6 301853Z AUTO 13006KT 27/16 A3009 RMK AO1 SLP159 T02670161





000
SAUS44 KMAF 301804
MTRGDP
METAR KGDP 301751Z AUTO VRB06KT 10SM CLR 21/08 A3032 RMK AO2 SLP207
T02060083 10211 20111 51006





000
SAUS44 KMAF 301754
MTR6R6
METAR K6R6 301753Z AUTO VRB03KT 24/16 A3012 RMK AO1 SLP171 T02390161
10244 20172 58008





000
SAUS44 KMAF 301704
MTRGDP
METAR KGDP 301651Z AUTO 23005KT 10SM CLR 18/08 A3032 RMK AO2 SLP212
T01780083





000
SAUS44 KMAF 301704
MTRGDP
METAR KGDP 301651Z AUTO 23005KT 10SM CLR 18/08 A3032 RMK AO2 SLP212
T01780083





000
SAUS44 KMAF 301654
MTR6R6
METAR K6R6 301653Z AUTO 00000KT 21/17 A3014 RMK AO1 SLP179 T02110167





000
SAUS44 KMAF 301654
MTR6R6
METAR K6R6 301653Z AUTO 00000KT 21/17 A3014 RMK AO1 SLP179 T02110167





000
SAUS44 KMAF 301604
MTRGDP
METAR KGDP 301551Z AUTO 22007KT 9SM CLR 16/08 A3031 RMK AO2 SLP211
T01610083





000
SAUS44 KMAF 301554
MTR6R6
METAR K6R6 301553Z AUTO 00000KT 19/17 A3015 RMK AO1 SLP185 T01890167





000
SAUS44 KMAF 301504
MTRGDP
METAR KGDP 301451Z AUTO 23008KT 9SM CLR 14/07 A3030 RMK AO2 SLP212
T01390067 53015





000
SAUS44 KMAF 301454
MTR6R6
METAR K6R6 301453Z AUTO 14004KT 18/17 A3015 RMK AO1 SLP183 T01830167
53013





000
SAUS44 KMAF 301404
MTRGDP
METAR KGDP 301351Z AUTO 26006KT 10SM CLR 14/06 A3028 RMK AO2 SLP204
T01390061





000
SAUS44 KMAF 301354
MTR6R6
METAR K6R6 301353Z AUTO 09005KT 18/17 A3013 RMK AO1 SLP178 T01780167





000
SAUS44 KMAF 301304
MTRGDP
METAR KGDP 301251Z AUTO 25008KT 10SM CLR 13/06 A3026 RMK AO2 SLP200
T01280061





000
SAUS44 KMAF 301254
MTR6R6
METAR K6R6 301253Z AUTO 06005KT 18/17 A3011 RMK AO1 SLP170 T01780167





000
SAUS44 KMAF 301204
MTRGDP
METAR KGDP 301151Z AUTO 24008KT 10SM CLR 11/06 A3025 RMK AO2 SLP195
T01110061 10167 20111 53004





000
SAUS44 KMAF 301154
MTR6R6
METAR K6R6 301153Z AUTO 01006KT 17/16 A3010 RMK AO1 SLP166 T01670161
10189 20167 53006





000
SAUS44 KMAF 301104
MTRGDP
METAR KGDP 301051Z AUTO 24009KT 10SM CLR 12/06 A3023 RMK AO2 SLP182
T01170061





000
SAUS44 KMAF 301054
MTR6R6
METAR K6R6 301053Z AUTO 35006KT 17/16 A3009 RMK AO1 SLP159 T01670156





000
SAUS44 KMAF 301054
MTR6R6
METAR K6R6 301053Z AUTO 35006KT 17/16 A3009 RMK AO1 SLP159 T01670156





000
SAUS44 KMAF 301004
MTRGDP
METAR KGDP 300951Z AUTO 24010KT 10SM CLR 12/07 A3023 RMK AO2 SLP181
T01170067





000
SAUS44 KMAF 300954
MTR6R6
METAR K6R6 300953Z AUTO 36006KT 17/16 A3008 RMK AO1 SLP157 T01720156





000
SAUS44 KMAF 300904
MTRGDP
METAR KGDP 300851Z AUTO 24010KT 10SM CLR 12/08 A3023 RMK AO2 SLP179
T01220078 56009





000
SAUS44 KMAF 300854
MTR6R6
METAR K6R6 300853Z AUTO 36007KT 18/16 A3009 RMK AO1 SLP157 T01830156
55004





000
SAUS44 KMAF 300804
MTRGDP
METAR KGDP 300751Z AUTO 24009KT 10SM CLR 13/08 A3024 RMK AO2 SLP181
T01330078





000
SAUS44 KMAF 300754
MTR6R6
METAR K6R6 300753Z AUTO 01006KT 18/16 A3008 RMK AO1 SLP156 T01830156





000
SAUS44 KMAF 300704
MTRGDP
METAR KGDP 300651Z AUTO 22007KT 10SM CLR 15/07 A3025 RMK AO2 SLP183
T01500072 402110089





000
SAUS44 KMAF 300654
MTR6R6
METAR K6R6 300653Z AUTO 01006KT 18/15 A3009 RMK AO1 SLP158 T01830150





000
SAUS44 KMAF 300604
MTRGDP
METAR KGDP 300551Z AUTO 05003KT 9SM CLR 14/09 A3026 RMK AO2 SLP194
T01390089 10167 20133 50001





000
SAUS44 KMAF 300554
MTR6R6
METAR K6R6 300553Z AUTO 03005KT 19/16 A3010 RMK AO1 SLP163 T01890156
10256 20189 402780178 58004





000
SAUS44 KMAF 300504
MTRGDP
METAR KGDP 300451Z AUTO 06012KT 10SM CLR 13/08 A3027 RMK AO2 SLP199
T01330083





000
SAUS44 KMAF 300454
MTR6R6
METAR K6R6 300453Z AUTO 04004KT 20/16 A3011 RMK AO1 SLP166 T02000156





000
SAUS44 KMAF 300454
MTR6R6
METAR K6R6 300453Z AUTO 04004KT 20/16 A3011 RMK AO1 SLP166 T02000156





000
SAUS44 KMAF 300404
MTRGDP
METAR KGDP 300351Z AUTO 07013KT 10SM CLR 14/08 A3027 RMK AO2 SLP201
T01390083





000
SAUS44 KMAF 300354
MTR6R6
METAR K6R6 300353Z AUTO 05005KT 21/16 A3011 RMK AO1 SLP170 T02060156





000
SAUS44 KMAF 300304
MTRGDP
METAR KGDP 300251Z AUTO 05013KT 10SM CLR 13/07 A3026 RMK AO2 SLP204
T01330072 51007





000
SAUS44 KMAF 300254
MTR6R6
METAR K6R6 300253Z AUTO 04004KT 21/15 A3011 RMK AO1 SLP170 T02060150
51010





000
SAUS44 KMAF 300204
MTRGDP
METAR KGDP 300151Z AUTO 05014KT 10SM CLR 14/07 A3026 RMK AO2 SLP205
T01440067





000
SAUS44 KMAF 300154
MTR6R6
METAR K6R6 300153Z AUTO 11004KT 22/15 A3010 RMK AO1 SLP167 T02170150





000
SAUS44 KMAF 300104
MTRGDP
METAR KGDP 300051Z AUTO 06014KT 10SM CLR 15/07 A3025 RMK AO2 SLP201
T01500067





000
SAUS44 KMAF 300054
MTR6R6
METAR K6R6 300053Z AUTO 11006KT 23/14 A3009 RMK AO1 SLP162 T02330144





000
SAUS44 KMAF 300004
MTRGDP
METAR KGDP 292351Z AUTO 07013KT 10SM CLR 17/07 A3024 RMK AO2 SLP193
T01670067 10211 20167 55002





000
SAUS44 KMAF 292355
MTR6R6
METAR K6R6 292353Z AUTO 12008KT 26/14 A3008 RMK AO1 SLP155 T02560144
10278 20244 55002





000
SAUS44 KMAF 292304
MTRGDP
METAR KGDP 292251Z AUTO 08013KT 10SM CLR 19/07 A3024 RMK AO2 SLP188
T01890067





000
SAUS44 KMAF 292254
MTR6R6
METAR K6R6 292253Z AUTO 09007KT 27/14 A3007 RMK AO1 SLP152 T02670139





000
SAUS44 KMAF 292254
MTR6R6
METAR K6R6 292253Z AUTO 09007KT 27/14 A3007 RMK AO1 SLP152 T02670139





000
SAUS44 KMAF 292204
MTRGDP
METAR KGDP 292151Z AUTO 08009KT 10SM CLR 21/06 A3024 RMK AO2 SLP185
T02060061





000
SAUS44 KMAF 292154
MTR6R6
METAR K6R6 292153Z AUTO 12009KT 27/14 A3008 RMK AO1 SLP153 T02720139





000
SAUS44 KMAF 292104
MTRGDP
METAR KGDP 292051Z AUTO 06007KT 10SM CLR 21/06 A3025 RMK AO2 SLP186
T02110061 56018





000
SAUS44 KMAF 292054
MTR6R6
METAR K6R6 292053Z AUTO 06008KT 28/14 A3009 RMK AO1 SLP156 T02780144
56028





000
SAUS44 KMAF 292004
MTRGDP
METAR KGDP 291951Z AUTO 10005KT 10SM CLR 20/06 A3026 RMK AO2 SLP193
T02000056





000
SAUS44 KMAF 291954
MTR6R6
METAR K6R6 291953Z AUTO 13010G16KT 27/14 A3011 RMK AO1 SLP163
T02670144





000
SAUS44 KMAF 291904
MTRGDP
METAR KGDP 291851Z AUTO 08009KT 10SM CLR 19/06 A3029 RMK AO2 SLP205
T01890061





000
SAUS44 KMAF 291854
MTR6R6
METAR K6R6 291853Z AUTO 09009KT 26/14 A3014 RMK AO1 SLP175 T02610144





000
SAUS44 KMAF 291804
MTRGDP
METAR KGDP 291751Z AUTO 07011KT 10SM CLR 17/06 A3031 RMK AO2 SLP216
T01720056 10172 20089 50003





000
SAUS44 KMAF 291754
MTR6R6
METAR K6R6 291753Z AUTO 09006KT 24/14 A3018 RMK AO1 SLP189 T02440139
10244 20178 58006





000
SAUS44 KMAF 291704
MTRGDP
METAR KGDP 291651Z AUTO 07016KT 10SM CLR 16/05 A3031 RMK AO2 SLP219
T01560050





000
SAUS44 KMAF 291654
MTR6R6
METAR K6R6 291653Z AUTO 06006KT 22/13 A3020 RMK AO1 SLP198 T02220133





000
SAUS44 KMAF 291604
MTRGDP
METAR KGDP 291551Z AUTO 07018KT 10SM CLR 14/04 A3031 RMK AO2 SLP222
T01390044





000
SAUS44 KMAF 291554
MTR6R6
METAR K6R6 291553Z AUTO 04009KT 21/13 A3020 RMK AO1 SLP199 T02060128





000
SAUS44 KMAF 291504
MTRGDP
METAR KGDP 291451Z AUTO 06017KT 10SM CLR 12/04 A3030 RMK AO2 SLP224
T01220039 53012





000
SAUS44 KMAF 291454
MTR6R6
METAR K6R6 291453Z AUTO 01008KT 19/12 A3020 RMK AO1 SLP199 T01940117
53020





000
SAUS44 KMAF 291404
MTRGDP
METAR KGDP 291351Z AUTO 06018KT 10SM CLR 10/04 A3028 RMK AO2 SLP220
T01000039





000
SAUS44 KMAF 291354
MTR6R6
METAR K6R6 291353Z AUTO 36007KT 18/11 A3017 RMK AO1 SLP192 T01830111





000
SAUS44 KMAF 291304
MTRGDP
METAR KGDP 291251Z AUTO 06018KT 10SM CLR 09/03 A3026 RMK AO2 SLP213
T00890033





000
SAUS44 KMAF 291254
MTR6R6
METAR K6R6 291253Z AUTO 36006KT 18/11 A3015 RMK AO1 SLP184 T01780106





000
SAUS44 KMAF 291204
MTRGDP
METAR KGDP 291151Z AUTO 06018KT 10SM CLR 09/04 A3026 RMK AO2 SLP206
T00940039 10111 20094 58001





000
SAUS44 KMAF 291154
MTR6R6
METAR K6R6 291153Z AUTO 01008KT 18/11 A3013 RMK AO1 SLP175 T01830106
10200 20183 53007





000
SAUS44 KMAF 291104
MTRGDP
METAR KGDP 291051Z AUTO 06015KT 10SM CLR 10/04 A3026 RMK AO2 SLP200
T01000039





000
SAUS44 KMAF 291054
MTR6R6
METAR K6R6 291053Z AUTO 02009KT 18/09 A3012 RMK AO1 SLP170 T01830089





000
SAUS44 KMAF 291004
MTRGDP
METAR KGDP 290951Z AUTO 06014KT 10SM CLR 11/04 A3026 RMK AO2 SLP199
T01060039





000
SAUS44 KMAF 290954
MTR6R6
METAR K6R6 290953Z AUTO 36008KT 19/08 A3012 RMK AO1 SLP167 T01890083





000
SAUS44 KMAF 290904
MTRGDP
METAR KGDP 290851Z AUTO 05016KT 10SM CLR 11/04 A3026 RMK AO2 SLP199
T01110039 53003





000
SAUS44 KMAF 290854
MTR6R6
METAR K6R6 290853Z AUTO 36009KT 19/08 A3011 RMK AO1 SLP166 T01940083
56002





000
SAUS44 KMAF 290804
MTRGDP
METAR KGDP 290751Z AUTO 05020KT 10SM CLR 11/03 A3025 RMK AO2 SLP198
T01060033





000
SAUS44 KMAF 290754
MTR6R6
METAR K6R6 290753Z AUTO 01008KT 19/08 A3011 RMK AO1 SLP166 T01940083





000
SAUS44 KMAF 290704
MTRGDP
METAR KGDP 290651Z AUTO 05021KT 10SM CLR 11/03 A3025 RMK AO2 SLP200
T01060033 401780072





000
SAUS44 KMAF 290654
MTR6R6
METAR K6R6 290653Z AUTO 02010KT 19/07 A3011 RMK AO1 SLP167 T01940072





000
SAUS44 KMAF 290604
MTRGDP
METAR KGDP 290551Z AUTO 05023KT 10SM CLR 11/03 A3025 RMK AO2 SLP202
T01060033 10139 20094 50001





000
SAUS44 KMAF 290554
MTR6R6
METAR K6R6 290553Z AUTO 36009KT 20/07 A3012 RMK AO1 SLP169 T02000067
10244 20200 402720172 51007





000
SAUS44 KMAF 290504
MTRGDP
METAR KGDP 290451Z AUTO 05022KT 10SM CLR 11/03 A3026 RMK AO2 SLP206
T01060028





000
SAUS44 KMAF 290454
MTR6R6
METAR K6R6 290453Z AUTO 35010KT 21/06 A3012 RMK AO1 SLP169 T02060061





000
SAUS44 KMAF 290454
MTR6R6
METAR K6R6 290453Z AUTO 35010KT 21/06 A3012 RMK AO1 SLP169 T02060061





000
SAUS44 KMAF 290404
MTRGDP
METAR KGDP 290351Z AUTO 06022KT 10SM CLR 10/03 A3025 RMK AO2 SLP208
T01000033





000
SAUS44 KMAF 290404
MTRGDP
METAR KGDP 290351Z AUTO 06022KT 10SM CLR 10/03 A3025 RMK AO2 SLP208
T01000033





000
SAUS44 KMAF 290354
MTR6R6
METAR K6R6 290353Z AUTO 35009KT 21/06 A3011 RMK AO1 SLP168 T02110061





000
SAUS44 KMAF 290304
MTRGDP
METAR KGDP 290251Z AUTO 06021KT 10SM CLR 10/03 A3024 RMK AO2 SLP208
T01000033 51010





000
SAUS44 KMAF 290255
MTR6R6
METAR K6R6 290253Z AUTO 34008KT 21/06 A3010 RMK AO1 SLP163 T02110061
51011





000
SAUS44 KMAF 290204
MTRGDP
METAR KGDP 290151Z AUTO 06020KT 10SM CLR 11/03 A3023 RMK AO2 SLP210
T01060033





000
SAUS44 KMAF 290155
MTR6R6
METAR K6R6 290153Z AUTO 34008KT 21/06 A3009 RMK AO1 SLP162 T02110061





000
SAUS44 KMAF 290155
MTR6R6
METAR K6R6 290153Z AUTO 34008KT 21/06 A3009 RMK AO1 SLP162 T02110061





000
SAUS44 KMAF 290104
MTRGDP
METAR KGDP 290051Z AUTO 06019KT 10SM CLR 12/03 A3022 RMK AO2 SLP201
T01170033





000
SAUS44 KMAF 290055
MTR6R6
METAR K6R6 290053Z AUTO 34006KT 22/06 A3008 RMK AO1 SLP158 T02170061





000
SAUS44 KMAF 290004
MTRGDP
METAR KGDP 282351Z AUTO 07018KT 10SM CLR 14/03 A3021 RMK AO2 SLP189
T01390033 10172 20133 53002





000
SAUS44 KMAF 282355
MTR6R6
METAR K6R6 282353Z AUTO 01005KT 24/06 A3006 RMK AO1 SLP151 T02440061
10272 20239 53007





000
SAUS44 KMAF 282304
MTRGDP
METAR KGDP 282251Z AUTO 08012KT 10SM CLR 16/04 A3020 RMK AO2 SLP181
T01610039





000
SAUS44 KMAF 282255
MTR6R6
METAR K6R6 282253Z AUTO 02010KT 26/06 A3005 RMK AO1 SLP143 T02610061





000
SAUS44 KMAF 282204
MTRGDP
METAR KGDP 282151Z AUTO 07008KT 10SM CLR 17/03 A3020 RMK AO2 SLP174
T01670033





000
SAUS44 KMAF 282154
MTR6R6
METAR K6R6 282153Z AUTO 01009G22KT 27/07 A3004 RMK AO1 SLP140
T02720067





000
SAUS44 KMAF 282104
MTRGDP
METAR KGDP 282051Z AUTO 06007KT 10SM CLR 17/03 A3020 RMK AO2 SLP167
T01670033 56015





000
SAUS44 KMAF 282054
MTR6R6
METAR K6R6 282053Z AUTO 35011G17KT 27/07 A3004 RMK AO1 SLP141
T02670072 56019





000
SAUS44 KMAF 282004
MTRGDP
METAR KGDP 281951Z AUTO 08010KT 10SM CLR 16/03 A3022 RMK AO2 SLP177
T01560028





000
SAUS44 KMAF 281954
MTR6R6
METAR K6R6 281953Z AUTO 03010G19KT 26/07 A3005 RMK AO1 SLP145
T02610072





000
SAUS44 KMAF 281904
MTRGDP
METAR KGDP 281851Z AUTO 08013KT 10SM CLR 14/02 A3023 RMK AO2 SLP183
T01440022





000
SAUS44 KMAF 281854
MTR6R6
METAR K6R6 281853Z AUTO 01013KT 25/07 A3008 RMK AO1 SLP154 T02500072





000
SAUS44 KMAF 281804
MTRGDP
METAR KGDP 281751Z AUTO 07017KT 10SM CLR 13/02 A3025 RMK AO2 PK WND
08026/1653 SLP188 T01330022 10133 20072 50008





000
SAUS44 KMAF 281754
MTR6R6
METAR K6R6 281753Z AUTO 36015G19KT 24/09 A3010 RMK AO1 SLP161
T02390089 10244 20172 $





000
SAUS44 KMAF 281704
MTRGDP
METAR KGDP 281651Z AUTO 07021KT 10SM CLR 12/02 A3025 RMK AO2 PK WND
07027/1601 SLP190 T01220022





000
SAUS44 KMAF 281654
MTR6R6
METAR K6R6 281653Z AUTO 01015G25KT 22/09 A3011 RMK AO1 SLP166
T02220094





000
SAUS44 KMAF 281654
MTR6R6
METAR K6R6 281653Z AUTO 01015G25KT 22/09 A3011 RMK AO1 SLP166
T02220094





000
SAUS44 KMAF 281603
MTRGDP
METAR KGDP 281551Z AUTO 07025KT 10SM CLR 11/02 A3024 RMK AO2 PK WND
07029/1509 SLP187 T01110022





000
SAUS44 KMAF 281554
MTR6R6
METAR K6R6 281553Z AUTO 34017G26KT 22/10 A3009 RMK AO1 PK WND
35027/1500 SLP159 T02170100





000
SAUS44 KMAF 281554
MTR6R6
METAR K6R6 281553Z AUTO 34017G26KT 22/10 A3009 RMK AO1 PK WND
35027/1500 SLP159 T02170100





000
SAUS44 KMAF 281503
MTRGDP
METAR KGDP 281451Z AUTO 06025KT 10SM CLR 09/03 A3022 RMK AO2 PK WND
06028/1412 SLP184 T00940028 52021





000
SAUS44 KMAF 281454
MTRGDP
SPECI KGDP 281442Z AUTO 07025KT 10SM CLR 09/03 A3022 RMK AO2 PK WND
06028/1412 T00890033





000
SAUS44 KMAF 281454
MTR6R6
METAR K6R6 281453Z AUTO 35014G20KT 22/14 A3007 RMK AO1 SLP151
T02170139 53037





000
SAUS44 KMAF 281445
MTRGDP
SPECI KGDP 281433Z AUTO 07026KT 2 1/2SM HZ CLR 08/03 A3022 RMK AO2
PK WND 06028/1412 T00830033





000
SAUS44 KMAF 281404
MTRGDP
METAR KGDP 281351Z AUTO 07028KT 10SM CLR 07/03 A3020 RMK AO2 PK WND
07031/1256 SLP178 T00720033





000
SAUS44 KMAF 281354
MTR6R6
METAR K6R6 281353Z AUTO 02006KT 19/16 A3001 RMK AO1 SLP132 T01890156





000
SAUS44 KMAF 281304
MTRGDP
METAR KGDP 281251Z AUTO 07030KT 10SM CLR 08/04 A3017 RMK AO2 PK WND
06034/1217 SLP166 T00780044





000
SAUS44 KMAF 281254
MTR6R6
METAR K6R6 281253Z AUTO 01007KT 18/15 A2997 RMK AO1 SLP119 T01780150





000
SAUS44 KMAF 281205 COR
MTRGDP
METAR KGDP 281151Z AUTO 07030KT 10SM CLR 09/05 A3015 RMK AO2 PK WND
07035/1140 SLP156 T00890050 10183 20089 53004





000
SAUS44 KMAF 281204
MTRGDP
METAR KGDP 281151Z AUTO 07030KT 10SM CLR 09/05 A3015 RMK AO2 PK WND
07035/1140 SLP156 T00890050 10183 20089 53004





000
SAUS44 KMAF 281204 COR
MTRGDP
METAR KGDP 281151Z AUTO 07030KT 10SM CLR 09/05 A3015 RMK AO2 PK WND
07035/1140 SLP156 T00890050 10183 20089 53004





000
SAUS44 KMAF 281154
MTR6R6
METAR K6R6 281153Z AUTO 35006KT 18/16 A2995 RMK AO1 SLP110 T01830156
10206 20183 53012





000
SAUS44 KMAF 281104
MTRGDP
METAR KGDP 281051Z AUTO 07027KT 10SM CLR 10/06 A3014 RMK AO2 PK WND
08032/1046 SLP148 T01000061





000
SAUS44 KMAF 281054
MTR6R6
METAR K6R6 281053Z AUTO 35005KT 19/16 A2993 RMK AO1 SLP103 T01890156





000
SAUS44 KMAF 281004
MTRGDP
METAR KGDP 280951Z AUTO 07019KT 10SM CLR 13/05 A3014 RMK AO2 SLP139
T01280050





000
SAUS44 KMAF 280954
MTR6R6
METAR K6R6 280953Z AUTO 36006KT 19/16 A2992 RMK AO1 SLP098 T01890156





000
SAUS44 KMAF 280954
MTR6R6
METAR K6R6 280953Z AUTO 36006KT 19/16 A2992 RMK AO1 SLP098 T01890156





000
SAUS44 KMAF 280904
MTRGDP
METAR KGDP 280851Z AUTO VRB05KT 10SM CLR 17/04 A3013 RMK AO2 SLP131
T01670039 53008





000
SAUS44 KMAF 280854
MTR6R6
METAR K6R6 280853Z AUTO 01005KT 19/16 A2991 RMK AO1 SLP095 T01940156
53005





000
SAUS44 KMAF 280804
MTRGDP
METAR KGDP 280751Z AUTO 18007KT 10SM CLR 15/07 A3013 RMK AO2 SLP132
T01500067





000
SAUS44 KMAF 280754
MTR6R6
METAR K6R6 280753Z AUTO 03006KT 19/16 A2991 RMK AO1 SLP093 T01940156





000
SAUS44 KMAF 280704
MTRGDP
METAR KGDP 280651Z AUTO 23008KT 10SM CLR 16/06 A3011 RMK AO2 SLP121
T01610056 402560150





000
SAUS44 KMAF 280654
MTR6R6
METAR K6R6 280653Z AUTO 01008KT 21/16 A2990 RMK AO1 SLP092 T02060161





000
SAUS44 KMAF 280605 COR
MTRGDP
METAR KGDP 280551Z AUTO 24009G20KT 10SM CLR 18/01 A3011 RMK AO2 PK
WND 28028/0502 SLP121 T01830011 10206 20178 51015





000
SAUS44 KMAF 280604
MTRGDP
METAR KGDP 280551Z AUTO 24009G20KT 10SM CLR 18/01 A3011 RMK AO2 PK
WND 28028/0502 SLP121 T01830011 10206 20178 51015





000
SAUS44 KMAF 280604 COR
MTRGDP
METAR KGDP 280551Z AUTO 24009G20KT 10SM CLR 18/01 A3011 RMK AO2 PK
WND 28028/0502 SLP121 T01830011 10206 20178 51015





000
SAUS44 KMAF 280554
MTR6R6
METAR K6R6 280553Z AUTO 36007KT 21/16 A2990 RMK AO1 SLP093 T02060161
10267 20206 403110150 51006





000
SAUS44 KMAF 280504
MTRGDP
METAR KGDP 280451Z AUTO 28019G27KT 10SM CLR 18/04 A3009 RMK AO2 PK
WND 25027/0427 SLP120 T01830039





000
SAUS44 KMAF 280504
MTRGDP
METAR KGDP 280451Z AUTO 28019G27KT 10SM CLR 18/04 A3009 RMK AO2 PK
WND 25027/0427 SLP120 T01830039





000
SAUS44 KMAF 280454
MTR6R6
METAR K6R6 280453Z AUTO 35008KT 21/16 A2989 RMK AO1 SLP092 T02110161





000
SAUS44 KMAF 280454
MTR6R6
METAR K6R6 280453Z AUTO 35008KT 21/16 A2989 RMK AO1 SLP092 T02110161





000
SAUS44 KMAF 280404
MTRGDP
METAR KGDP 280351Z AUTO 25019KT 10SM CLR 19/07 A3008 RMK AO2 SLP117
T01890067





000
SAUS44 KMAF 280404
MTRGDP
METAR KGDP 280351Z AUTO 25019KT 10SM CLR 19/07 A3008 RMK AO2 SLP117
T01890067





000
SAUS44 KMAF 280354
MTR6R6
METAR K6R6 280353Z AUTO 36006KT 22/16 A2989 RMK AO1 SLP092 T02170161





000
SAUS44 KMAF 280354
MTR6R6
METAR K6R6 280353Z AUTO 36006KT 22/16 A2989 RMK AO1 SLP092 T02170161





000
SAUS44 KMAF 280305 COR
MTRGDP
METAR KGDP 280251Z AUTO 26018G26KT 10SM CLR 19/07 A3006 RMK AO2 PK
WND 26030/0223 SLP113 T01940067 53012





000
SAUS44 KMAF 280304
MTRGDP
METAR KGDP 280251Z AUTO 26018G26KT 10SM CLR 19/07 A3006 RMK AO2 PK
WND 26030/0223 SLP113 T01940067 53012





000
SAUS44 KMAF 280254
MTR6R6
METAR K6R6 280253Z AUTO 02006KT 22/17 A2988 RMK AO1 SLP090 T02220167
51014





000
SAUS44 KMAF 280204
MTRGDP
METAR KGDP 280151Z AUTO 26023G30KT 10SM CLR 20/06 A3002 RMK AO2 PK
WND 25030/0144 SLP102 T02000061





000
SAUS44 KMAF 280204
MTRGDP
METAR KGDP 280151Z AUTO 26023G30KT 10SM CLR 20/06 A3002 RMK AO2 PK
WND 25030/0144 SLP102 T02000061





000
SAUS44 KMAF 280154
MTR6R6
METAR K6R6 280153Z AUTO 07006KT 24/17 A2987 RMK AO1 SLP086 T02390167





000
SAUS44 KMAF 280154
MTR6R6
METAR K6R6 280153Z AUTO 07006KT 24/17 A2987 RMK AO1 SLP086 T02390167





000
SAUS44 KMAF 280104
MTRGDP
METAR KGDP 280051Z AUTO 25023KT 10SM CLR 21/05 A3002 RMK AO2 PK WND
25028/0044 SLP099 T02060050





000
SAUS44 KMAF 280054
MTR6R6
METAR K6R6 280053Z AUTO 11005KT 25/17 A2986 RMK AO1 SLP082 T02500172





000
SAUS44 KMAF 280005 COR
MTRGDP
METAR KGDP 272351Z AUTO 25018KT 10SM CLR 21/05 A3001 RMK AO2 PK WND
25028/2309 SLP096 T02060050 10256 20206 53004





000
SAUS44 KMAF 280004
MTRGDP
METAR KGDP 272351Z AUTO 25018KT 10SM CLR 21/05 A3001 RMK AO2 PK WND
25028/2309 SLP096 T02060050 10256 20206 53004





000
SAUS44 KMAF 272354
MTR6R6
METAR K6R6 272353Z AUTO 13013KT 27/16 A2983 RMK AO1 SLP073 T02670156
10311 20261 53006





    US Dept of Commerce
    National Oceanic and Atmospheric Administration
    National Weather Service
    1325 East West Highway
    Silver Spring, MD 20910
    Page Author: NWS Internet Services Team
Disclaimer
Information Quality
Credits
Glossary
Privacy Policy
Freedom of Information Act (FOIA)
About Us
Career Opportunities